sensor_id;sensor_type;location;lat;lon;timestamp;P1;durP1;ratioP1;P2;durP2;ratioP2
31182;SDS011;17813;0.000;0.000;2023-03-05T00:02:21;4.57;;;2.03;;
31182;SDS011;17813;0.000;0.000;2023-03-05T00:04:53;4.33;;;2.20;;
31182;SDS011;17813;0.000;0.000;2023-03-05T00:07:28;4.00;;;2.43;;
31182;SDS011;17813;0.000;0.000;2023-03-05T01:10:02;4.47;;;1.80;;
31182;SDS011;17813;0.000;0.000;2023-03-05T01:12:38;3.40;;;1.80;;
31182;SDS011;17813;0.000;0.000;2023-03-05T01:15:15;3.37;;;1.90;;
31182;SDS011;17813;0.000;0.000;2023-03-05T01:17:44;4.30;;;1.80;;
31182;SDS011;17813;0.000;0.000;2023-03-05T01:20:16;3.83;;;1.90;;
31182;SDS011;17813;0.000;0.000;2023-03-05T01:22:53;3.57;;;2.10;;
31182;SDS011;17813;0.000;0.000;2023-03-05T01:25:30;2.93;;;1.93;;
31182;SDS011;17813;0.000;0.000;2023-03-05T01:28:06;4.47;;;2.20;;
31182;SDS011;17813;0.000;0.000;2023-03-05T01:30:44;5.17;;;2.40;;
31182;SDS011;17813;0.000;0.000;2023-03-05T01:33:12;3.97;;;2.30;;
31182;SDS011;17813;0.000;0.000;2023-03-05T01:35:44;3.20;;;1.90;;
31182;SDS011;17813;0.000;0.000;2023-03-05T01:38:17;5.47;;;2.07;;
31182;SDS011;17813;0.000;0.000;2023-03-05T01:40:50;5.03;;;2.23;;
31182;SDS011;17813;0.000;0.000;2023-03-05T01:43:22;3.83;;;2.10;;
31182;SDS011;17813;0.000;0.000;2023-03-05T01:49:34;2.67;;;2.10;;
31182;SDS011;17813;0.000;0.000;2023-03-05T01:54:46;3.83;;;2.07;;
31182;SDS011;17813;0.000;0.000;2023-03-05T01:57:23;5.00;;;2.13;;
31182;SDS011;17813;0.000;0.000;2023-03-05T02:00:13;3.40;;;2.23;;
31182;SDS011;17813;0.000;0.000;2023-03-05T02:02:50;4.63;;;2.30;;
31182;SDS011;17813;0.000;0.000;2023-03-05T02:05:32;4.13;;;2.10;;
31182;SDS011;17813;0.000;0.000;2023-03-05T02:08:05;5.47;;;2.10;;
31182;SDS011;17813;0.000;0.000;2023-03-05T03:10:42;4.90;;;1.80;;
31182;SDS011;17813;0.000;0.000;2023-03-05T03:13:11;2.47;;;1.50;;
31182;SDS011;17813;0.000;0.000;2023-03-05T03:15:40;2.37;;;1.50;;
31182;SDS011;17813;0.000;0.000;2023-03-05T03:18:10;4.90;;;1.37;;
31182;SDS011;17813;0.000;0.000;2023-03-05T03:20:40;3.53;;;1.80;;
31182;SDS011;17813;0.000;0.000;2023-03-05T03:23:07;2.83;;;1.27;;
31182;SDS011;17813;0.000;0.000;2023-03-05T03:25:45;3.23;;;1.40;;
31182;SDS011;17813;0.000;0.000;2023-03-05T03:28:18;3.07;;;1.50;;
31182;SDS011;17813;0.000;0.000;2023-03-05T03:30:57;4.13;;;1.60;;
31182;SDS011;17813;0.000;0.000;2023-03-05T03:33:34;3.80;;;1.37;;
31182;SDS011;17813;0.000;0.000;2023-03-05T03:36:12;4.27;;;1.60;;
31182;SDS011;17813;0.000;0.000;2023-03-05T03:38:43;2.50;;;1.40;;
31182;SDS011;17813;0.000;0.000;2023-03-05T03:41:11;2.40;;;1.30;;
31182;SDS011;17813;0.000;0.000;2023-03-05T03:43:43;2.80;;;1.40;;
31182;SDS011;17813;0.000;0.000;2023-03-05T03:46:15;1.90;;;1.40;;
31182;SDS011;17813;0.000;0.000;2023-03-05T03:48:48;1.97;;;0.90;;
31182;SDS011;17813;0.000;0.000;2023-03-05T03:51:24;2.83;;;1.33;;
31182;SDS011;17813;0.000;0.000;2023-03-05T03:53:54;1.87;;;1.10;;
31182;SDS011;17813;0.000;0.000;2023-03-05T03:56:29;2.47;;;1.33;;
31182;SDS011;17813;0.000;0.000;2023-03-05T03:59:11;1.37;;;1.10;;
31182;SDS011;17813;0.000;0.000;2023-03-05T04:01:44;3.00;;;1.20;;
31182;SDS011;17813;0.000;0.000;2023-03-05T04:04:14;3.07;;;1.30;;
31182;SDS011;17813;0.000;0.000;2023-03-05T04:06:45;1.67;;;1.10;;
31182;SDS011;17813;0.000;0.000;2023-03-05T04:09:21;2.47;;;1.10;;
31182;SDS011;17813;0.000;0.000;2023-03-05T04:11:53;1.33;;;1.03;;
31182;SDS011;17813;0.000;0.000;2023-03-05T04:14:27;1.50;;;1.10;;
31182;SDS011;17813;0.000;0.000;2023-03-05T04:17:01;3.50;;;1.33;;
31182;SDS011;17813;0.000;0.000;2023-03-05T04:19:29;2.33;;;1.47;;
31182;SDS011;17813;0.000;0.000;2023-03-05T04:21:59;2.17;;;1.20;;
31182;SDS011;17813;0.000;0.000;2023-03-05T04:24:33;2.93;;;1.30;;
31182;SDS011;17813;0.000;0.000;2023-03-05T04:27:03;3.33;;;1.20;;
31182;SDS011;17813;0.000;0.000;2023-03-05T04:29:40;2.83;;;1.30;;
31182;SDS011;17813;0.000;0.000;2023-03-05T04:32:14;3.30;;;1.20;;
31182;SDS011;17813;0.000;0.000;2023-03-05T04:34:55;0.80;;;0.80;;
31182;SDS011;17813;0.000;0.000;2023-03-05T04:37:33;1.97;;;1.20;;
31182;SDS011;17813;0.000;0.000;2023-03-05T04:40:08;2.33;;;1.00;;
31182;SDS011;17813;0.000;0.000;2023-03-05T04:42:42;2.87;;;1.10;;
31182;SDS011;17813;0.000;0.000;2023-03-05T04:45:15;2.50;;;1.20;;
31182;SDS011;17813;0.000;0.000;2023-03-05T04:47:45;3.13;;;1.30;;
31182;SDS011;17813;0.000;0.000;2023-03-05T04:50:14;1.23;;;1.10;;
31182;SDS011;17813;0.000;0.000;2023-03-05T04:52:43;2.23;;;1.13;;
31182;SDS011;17813;0.000;0.000;2023-03-05T04:55:17;1.60;;;1.30;;
31182;SDS011;17813;0.000;0.000;2023-03-05T04:57:47;1.83;;;1.10;;
31182;SDS011;17813;0.000;0.000;2023-03-05T05:00:20;4.23;;;1.50;;
31182;SDS011;17813;0.000;0.000;2023-03-05T05:02:53;2.33;;;1.40;;
31182;SDS011;17813;0.000;0.000;2023-03-05T05:05:31;1.93;;;1.23;;
31182;SDS011;17813;0.000;0.000;2023-03-05T05:08:04;2.17;;;1.30;;
31182;SDS011;17813;0.000;0.000;2023-03-05T05:10:38;1.93;;;1.20;;
31182;SDS011;17813;0.000;0.000;2023-03-05T05:13:11;1.73;;;1.30;;
31182;SDS011;17813;0.000;0.000;2023-03-05T05:15:45;2.93;;;1.60;;
31182;SDS011;17813;0.000;0.000;2023-03-05T05:18:17;2.70;;;1.50;;
31182;SDS011;17813;0.000;0.000;2023-03-05T05:20:51;2.20;;;1.40;;
31182;SDS011;17813;0.000;0.000;2023-03-05T05:23:26;1.87;;;1.40;;
31182;SDS011;17813;0.000;0.000;2023-03-05T05:26:00;2.77;;;1.63;;
31182;SDS011;17813;0.000;0.000;2023-03-05T05:28:36;1.70;;;1.30;;
31182;SDS011;17813;0.000;0.000;2023-03-05T05:31:08;2.00;;;1.10;;
31182;SDS011;17813;0.000;0.000;2023-03-05T05:33:45;2.33;;;1.30;;
31182;SDS011;17813;0.000;0.000;2023-03-05T05:36:18;2.53;;;1.50;;
31182;SDS011;17813;0.000;0.000;2023-03-05T05:38:54;2.13;;;1.43;;
31182;SDS011;17813;0.000;0.000;2023-03-05T05:41:26;2.80;;;1.30;;
31182;SDS011;17813;0.000;0.000;2023-03-05T05:43:59;3.90;;;1.37;;
31182;SDS011;17813;0.000;0.000;2023-03-05T05:46:30;2.87;;;1.27;;
31182;SDS011;17813;0.000;0.000;2023-03-05T05:49:05;2.60;;;1.47;;
31182;SDS011;17813;0.000;0.000;2023-03-05T05:51:41;2.53;;;1.50;;
31182;SDS011;17813;0.000;0.000;2023-03-05T05:54:16;3.10;;;1.30;;
31182;SDS011;17813;0.000;0.000;2023-03-05T05:56:48;1.37;;;1.20;;
31182;SDS011;17813;0.000;0.000;2023-03-05T05:59:21;4.03;;;1.50;;
31182;SDS011;17813;0.000;0.000;2023-03-05T06:01:56;2.43;;;1.30;;
31182;SDS011;17813;0.000;0.000;2023-03-05T06:04:24;2.60;;;1.40;;
31182;SDS011;17813;0.000;0.000;2023-03-05T06:06:53;2.70;;;1.30;;
31182;SDS011;17813;0.000;0.000;2023-03-05T06:09:26;2.40;;;1.53;;
31182;SDS011;17813;0.000;0.000;2023-03-05T06:11:58;2.47;;;1.20;;
31182;SDS011;17813;0.000;0.000;2023-03-05T06:14:30;2.03;;;1.40;;
31182;SDS011;17813;0.000;0.000;2023-03-05T06:17:03;1.93;;;1.20;;
31182;SDS011;17813;0.000;0.000;2023-03-05T06:19:39;2.27;;;1.30;;
31182;SDS011;17813;0.000;0.000;2023-03-05T06:22:09;3.93;;;1.30;;
31182;SDS011;17813;0.000;0.000;2023-03-05T06:24:48;2.60;;;1.23;;
31182;SDS011;17813;0.000;0.000;2023-03-05T06:27:18;1.70;;;1.30;;
31182;SDS011;17813;0.000;0.000;2023-03-05T06:29:50;2.03;;;1.07;;
31182;SDS011;17813;0.000;0.000;2023-03-05T06:32:32;2.37;;;1.30;;
31182;SDS011;17813;0.000;0.000;2023-03-05T06:35:02;2.50;;;1.10;;
31182;SDS011;17813;0.000;0.000;2023-03-05T06:37:35;2.00;;;1.13;;
31182;SDS011;17813;0.000;0.000;2023-03-05T06:40:06;2.30;;;1.17;;
31182;SDS011;17813;0.000;0.000;2023-03-05T06:42:41;2.67;;;1.30;;
31182;SDS011;17813;0.000;0.000;2023-03-05T06:45:19;1.47;;;1.00;;
31182;SDS011;17813;0.000;0.000;2023-03-05T06:47:49;2.23;;;1.00;;
31182;SDS011;17813;0.000;0.000;2023-03-05T06:50:18;2.83;;;1.40;;
31182;SDS011;17813;0.000;0.000;2023-03-05T06:52:50;1.40;;;1.10;;
31182;SDS011;17813;0.000;0.000;2023-03-05T06:55:25;2.87;;;1.30;;
31182;SDS011;17813;0.000;0.000;2023-03-05T06:57:54;2.07;;;1.20;;
31182;SDS011;17813;0.000;0.000;2023-03-05T07:00:25;1.70;;;1.47;;
31182;SDS011;17813;0.000;0.000;2023-03-05T07:02:55;1.93;;;1.10;;
31182;SDS011;17813;0.000;0.000;2023-03-05T07:05:27;1.63;;;0.93;;
31182;SDS011;17813;0.000;0.000;2023-03-05T07:08:00;1.77;;;1.20;;
31182;SDS011;17813;0.000;0.000;2023-03-05T07:10:36;2.50;;;1.13;;
31182;SDS011;17813;0.000;0.000;2023-03-05T07:13:11;3.23;;;1.10;;
31182;SDS011;17813;0.000;0.000;2023-03-05T07:15:40;2.23;;;1.10;;
31182;SDS011;17813;0.000;0.000;2023-03-05T07:18:11;1.83;;;1.10;;
31182;SDS011;17813;0.000;0.000;2023-03-05T07:20:43;2.50;;;1.33;;
31182;SDS011;17813;0.000;0.000;2023-03-05T07:23:17;1.70;;;1.00;;
31182;SDS011;17813;0.000;0.000;2023-03-05T07:25:53;2.50;;;1.13;;
31182;SDS011;17813;0.000;0.000;2023-03-05T07:28:29;2.77;;;1.00;;
31182;SDS011;17813;0.000;0.000;2023-03-05T07:31:04;1.93;;;1.10;;
31182;SDS011;17813;0.000;0.000;2023-03-05T07:33:41;1.87;;;1.00;;
31182;SDS011;17813;0.000;0.000;2023-03-05T07:36:10;2.20;;;1.20;;
31182;SDS011;17813;0.000;0.000;2023-03-05T07:38:43;2.07;;;1.10;;
31182;SDS011;17813;0.000;0.000;2023-03-05T07:41:18;2.10;;;1.00;;
31182;SDS011;17813;0.000;0.000;2023-03-05T07:43:56;1.97;;;1.17;;
31182;SDS011;17813;0.000;0.000;2023-03-05T07:46:32;2.63;;;1.00;;
31182;SDS011;17813;0.000;0.000;2023-03-05T07:49:05;0.93;;;0.80;;
31182;SDS011;17813;0.000;0.000;2023-03-05T07:51:32;2.80;;;1.20;;
31182;SDS011;17813;0.000;0.000;2023-03-05T07:54:12;2.03;;;0.90;;
31182;SDS011;17813;0.000;0.000;2023-03-05T07:56:44;1.43;;;1.00;;
31182;SDS011;17813;0.000;0.000;2023-03-05T07:59:25;2.73;;;0.90;;
31182;SDS011;17813;0.000;0.000;2023-03-05T08:02:00;2.70;;;1.10;;
31182;SDS011;17813;0.000;0.000;2023-03-05T08:04:33;2.90;;;0.93;;
31182;SDS011;17813;0.000;0.000;2023-03-05T08:07:06;3.13;;;1.30;;
31182;SDS011;17813;0.000;0.000;2023-03-05T08:09:38;1.63;;;1.20;;
31182;SDS011;17813;0.000;0.000;2023-03-05T08:12:09;2.70;;;1.20;;
31182;SDS011;17813;0.000;0.000;2023-03-05T08:14:38;1.80;;;1.03;;
31182;SDS011;17813;0.000;0.000;2023-03-05T08:17:13;1.47;;;1.00;;
31182;SDS011;17813;0.000;0.000;2023-03-05T08:19:45;1.43;;;1.00;;
31182;SDS011;17813;0.000;0.000;2023-03-05T08:22:14;2.07;;;1.07;;
31182;SDS011;17813;0.000;0.000;2023-03-05T08:24:47;2.63;;;1.00;;
31182;SDS011;17813;0.000;0.000;2023-03-05T08:27:23;1.37;;;1.20;;
31182;SDS011;17813;0.000;0.000;2023-03-05T08:29:54;3.47;;;1.10;;
31182;SDS011;17813;0.000;0.000;2023-03-05T08:32:24;2.20;;;1.13;;
31182;SDS011;17813;0.000;0.000;2023-03-05T08:34:55;2.37;;;1.20;;
31182;SDS011;17813;0.000;0.000;2023-03-05T08:37:32;1.67;;;1.40;;
31182;SDS011;17813;0.000;0.000;2023-03-05T08:40:04;2.27;;;1.10;;
31182;SDS011;17813;0.000;0.000;2023-03-05T08:42:33;2.37;;;1.47;;
31182;SDS011;17813;0.000;0.000;2023-03-05T08:45:02;2.30;;;1.60;;
31182;SDS011;17813;0.000;0.000;2023-03-05T08:47:34;2.40;;;1.80;;
31182;SDS011;17813;0.000;0.000;2023-03-05T08:50:04;2.87;;;1.60;;
31182;SDS011;17813;0.000;0.000;2023-03-05T08:52:35;2.20;;;1.60;;
31182;SDS011;17813;0.000;0.000;2023-03-05T08:55:04;1.93;;;1.30;;
31182;SDS011;17813;0.000;0.000;2023-03-05T08:57:35;1.80;;;1.30;;
31182;SDS011;17813;0.000;0.000;2023-03-05T09:00:12;1.87;;;1.40;;
31182;SDS011;17813;0.000;0.000;2023-03-05T09:02:42;2.60;;;1.60;;
31182;SDS011;17813;0.000;0.000;2023-03-05T09:05:10;2.13;;;1.53;;
31182;SDS011;17813;0.000;0.000;2023-03-05T09:07:42;2.60;;;1.90;;
31182;SDS011;17813;0.000;0.000;2023-03-05T09:10:09;2.23;;;1.50;;
31182;SDS011;17813;0.000;0.000;2023-03-05T10:12:56;3.40;;;1.70;;
31182;SDS011;17813;0.000;0.000;2023-03-05T10:18:16;2.07;;;1.50;;
31182;SDS011;17813;0.000;0.000;2023-03-05T10:27:08;2.47;;;1.70;;
31182;SDS011;17813;0.000;0.000;2023-03-05T10:35:42;2.23;;;1.53;;
31182;SDS011;17813;0.000;0.000;2023-03-05T10:44:10;2.07;;;1.50;;
31182;SDS011;17813;0.000;0.000;2023-03-05T10:46:54;2.13;;;1.67;;
31182;SDS011;17813;0.000;0.000;2023-03-05T10:49:32;1.83;;;1.40;;
31182;SDS011;17813;0.000;0.000;2023-03-05T10:52:09;1.97;;;1.60;;
31182;SDS011;17813;0.000;0.000;2023-03-05T10:54:49;2.30;;;1.40;;
31182;SDS011;17813;0.000;0.000;2023-03-05T11:08:25;3.23;;;1.80;;
31182;SDS011;17813;0.000;0.000;2023-03-05T13:12:26;1.30;;;1.10;;
31182;SDS011;17813;0.000;0.000;2023-03-05T13:15:05;2.10;;;1.30;;
31182;SDS011;17813;0.000;0.000;2023-03-05T13:17:59;1.70;;;1.00;;
31182;SDS011;17813;0.000;0.000;2023-03-05T13:20:38;3.13;;;1.20;;
31182;SDS011;17813;0.000;0.000;2023-03-05T13:28:34;1.10;;;1.00;;
31182;SDS011;17813;0.000;0.000;2023-03-05T13:31:15;1.53;;;1.40;;
31182;SDS011;17813;0.000;0.000;2023-03-05T13:33:58;1.73;;;1.40;;
31182;SDS011;17813;0.000;0.000;2023-03-05T13:37:04;1.30;;;1.20;;
31182;SDS011;17813;0.000;0.000;2023-03-05T13:39:59;2.17;;;1.60;;
31182;SDS011;17813;0.000;0.000;2023-03-05T13:42:46;1.60;;;1.50;;
31182;SDS011;17813;0.000;0.000;2023-03-05T13:45:28;2.10;;;1.60;;
31182;SDS011;17813;0.000;0.000;2023-03-05T13:48:03;1.70;;;1.30;;
31182;SDS011;17813;0.000;0.000;2023-03-05T13:50:53;2.00;;;1.30;;
31182;SDS011;17813;0.000;0.000;2023-03-05T13:53:29;2.30;;;1.50;;
31182;SDS011;17813;0.000;0.000;2023-03-05T13:56:02;2.17;;;1.20;;
31182;SDS011;17813;0.000;0.000;2023-03-05T13:58:41;1.53;;;1.43;;
31182;SDS011;17813;0.000;0.000;2023-03-05T14:01:27;1.97;;;1.40;;
31182;SDS011;17813;0.000;0.000;2023-03-05T14:15:20;1.70;;;1.60;;
31182;SDS011;17813;0.000;0.000;2023-03-05T14:23:49;1.60;;;1.40;;
31182;SDS011;17813;0.000;0.000;2023-03-05T14:31:27;2.13;;;1.60;;
31182;SDS011;17813;0.000;0.000;2023-03-05T14:34:01;2.83;;;1.70;;
31182;SDS011;17813;0.000;0.000;2023-03-05T14:36:37;1.60;;;1.50;;
31182;SDS011;17813;0.000;0.000;2023-03-05T14:39:37;3.00;;;1.80;;
31182;SDS011;17813;0.000;0.000;2023-03-05T14:45:00;1.40;;;1.30;;
31182;SDS011;17813;0.000;0.000;2023-03-05T14:47:55;1.73;;;1.50;;
31182;SDS011;17813;0.000;0.000;2023-03-05T14:50:40;1.67;;;1.40;;
31182;SDS011;17813;0.000;0.000;2023-03-05T14:53:30;1.40;;;1.30;;
31182;SDS011;17813;0.000;0.000;2023-03-05T14:56:08;1.60;;;1.50;;
31182;SDS011;17813;0.000;0.000;2023-03-05T14:59:02;1.80;;;1.47;;
31182;SDS011;17813;0.000;0.000;2023-03-05T15:01:38;2.40;;;1.70;;
31182;SDS011;17813;0.000;0.000;2023-03-05T15:04:13;2.97;;;1.90;;
31182;SDS011;17813;0.000;0.000;2023-03-05T15:06:58;1.93;;;1.60;;
31182;SDS011;17813;0.000;0.000;2023-03-05T15:09:26;2.97;;;1.70;;
31182;SDS011;17813;0.000;0.000;2023-03-05T16:03:39;2.00;;;1.60;;
31182;SDS011;17813;0.000;0.000;2023-03-05T16:12:39;1.70;;;1.60;;
31182;SDS011;17813;0.000;0.000;2023-03-05T16:15:15;2.03;;;1.60;;
31182;SDS011;17813;0.000;0.000;2023-03-05T16:17:51;1.60;;;1.50;;
31182;SDS011;17813;0.000;0.000;2023-03-05T16:20:25;2.37;;;1.60;;
31182;SDS011;17813;0.000;0.000;2023-03-05T16:22:57;1.93;;;1.60;;
31182;SDS011;17813;0.000;0.000;2023-03-05T16:25:36;2.97;;;1.60;;
31182;SDS011;17813;0.000;0.000;2023-03-05T16:28:06;1.80;;;1.50;;
31182;SDS011;17813;0.000;0.000;2023-03-05T16:30:43;1.50;;;1.40;;
31182;SDS011;17813;0.000;0.000;2023-03-05T16:33:16;1.93;;;1.67;;
31182;SDS011;17813;0.000;0.000;2023-03-05T16:35:51;1.70;;;1.60;;
31182;SDS011;17813;0.000;0.000;2023-03-05T16:38:53;1.80;;;1.60;;
31182;SDS011;17813;0.000;0.000;2023-03-05T16:41:31;1.57;;;1.40;;
31182;SDS011;17813;0.000;0.000;2023-03-05T16:44:02;2.13;;;1.70;;
31182;SDS011;17813;0.000;0.000;2023-03-05T16:46:37;2.13;;;1.80;;
31182;SDS011;17813;0.000;0.000;2023-03-05T16:49:16;2.67;;;1.73;;
31182;SDS011;17813;0.000;0.000;2023-03-05T16:51:48;1.80;;;1.70;;
31182;SDS011;17813;0.000;0.000;2023-03-05T16:54:35;2.57;;;1.90;;
31182;SDS011;17813;0.000;0.000;2023-03-05T16:57:15;2.20;;;1.83;;
31182;SDS011;17813;0.000;0.000;2023-03-05T16:59:57;1.90;;;1.67;;
31182;SDS011;17813;0.000;0.000;2023-03-05T17:02:32;2.20;;;2.00;;
31182;SDS011;17813;0.000;0.000;2023-03-05T17:05:07;2.13;;;1.90;;
31182;SDS011;17813;0.000;0.000;2023-03-05T17:07:38;2.27;;;1.90;;
31182;SDS011;17813;0.000;0.000;2023-03-05T17:10:06;2.17;;;1.97;;
31182;SDS011;17813;0.000;0.000;2023-03-05T17:12:33;1.97;;;1.70;;
31182;SDS011;17813;0.000;0.000;2023-03-05T17:15:00;1.97;;;1.60;;
31182;SDS011;17813;0.000;0.000;2023-03-05T17:17:27;3.67;;;1.70;;
31182;SDS011;17813;0.000;0.000;2023-03-05T17:19:54;1.90;;;1.67;;
31182;SDS011;17813;0.000;0.000;2023-03-05T17:22:21;1.87;;;1.73;;
31182;SDS011;17813;0.000;0.000;2023-03-05T17:24:48;2.30;;;1.70;;
31182;SDS011;17813;0.000;0.000;2023-03-05T17:27:15;2.07;;;1.67;;
31182;SDS011;17813;0.000;0.000;2023-03-05T17:29:47;1.90;;;1.67;;
31182;SDS011;17813;0.000;0.000;2023-03-05T17:32:14;2.60;;;1.67;;
31182;SDS011;17813;0.000;0.000;2023-03-05T17:34:42;2.40;;;1.93;;
31182;SDS011;17813;0.000;0.000;2023-03-05T17:37:09;2.20;;;2.00;;
31182;SDS011;17813;0.000;0.000;2023-03-05T17:39:36;2.13;;;1.90;;
31182;SDS011;17813;0.000;0.000;2023-03-05T17:42:04;2.00;;;1.80;;
31182;SDS011;17813;0.000;0.000;2023-03-05T17:44:32;1.93;;;1.73;;
31182;SDS011;17813;0.000;0.000;2023-03-05T17:46:59;1.73;;;1.63;;
31182;SDS011;17813;0.000;0.000;2023-03-05T17:49:26;1.77;;;1.60;;
31182;SDS011;17813;0.000;0.000;2023-03-05T17:51:53;2.37;;;1.80;;
31182;SDS011;17813;0.000;0.000;2023-03-05T17:54:20;2.87;;;1.90;;
31182;SDS011;17813;0.000;0.000;2023-03-05T17:56:47;2.13;;;1.83;;
31182;SDS011;17813;0.000;0.000;2023-03-05T17:59:14;3.23;;;2.10;;
31182;SDS011;17813;0.000;0.000;2023-03-05T18:01:41;2.13;;;1.90;;
31182;SDS011;17813;0.000;0.000;2023-03-05T18:04:07;2.20;;;2.00;;
31182;SDS011;17813;0.000;0.000;2023-03-05T18:06:36;2.37;;;1.70;;
31182;SDS011;17813;0.000;0.000;2023-03-05T18:09:03;2.90;;;1.87;;
31182;SDS011;17813;0.000;0.000;2023-03-05T18:11:30;2.13;;;1.90;;
31182;SDS011;17813;0.000;0.000;2023-03-05T21:15:27;5.10;;;4.10;;
31182;SDS011;17813;0.000;0.000;2023-03-05T21:17:56;4.50;;;3.67;;
31182;SDS011;17813;0.000;0.000;2023-03-05T21:20:24;5.13;;;3.93;;
31182;SDS011;17813;0.000;0.000;2023-03-05T21:22:55;4.50;;;3.90;;
31182;SDS011;17813;0.000;0.000;2023-03-05T21:25:24;4.30;;;3.90;;
31182;SDS011;17813;0.000;0.000;2023-03-05T21:28:01;4.20;;;3.80;;
31182;SDS011;17813;0.000;0.000;2023-03-05T21:33:09;6.43;;;5.10;;
31182;SDS011;17813;0.000;0.000;2023-03-05T21:35:39;5.90;;;5.30;;
31182;SDS011;17813;0.000;0.000;2023-03-05T21:38:06;5.77;;;4.67;;
31182;SDS011;17813;0.000;0.000;2023-03-05T21:40:35;6.37;;;5.00;;
31182;SDS011;17813;0.000;0.000;2023-03-05T21:43:04;6.03;;;4.80;;
31182;SDS011;17813;0.000;0.000;2023-03-05T21:45:31;5.57;;;4.90;;
31182;SDS011;17813;0.000;0.000;2023-03-05T21:47:58;5.60;;;4.77;;
31182;SDS011;17813;0.000;0.000;2023-03-05T21:50:24;5.30;;;4.63;;
31182;SDS011;17813;0.000;0.000;2023-03-05T21:52:51;6.33;;;5.07;;
31182;SDS011;17813;0.000;0.000;2023-03-05T21:55:21;5.60;;;4.50;;
31182;SDS011;17813;0.000;0.000;2023-03-05T21:58:00;4.93;;;4.17;;
31182;SDS011;17813;0.000;0.000;2023-03-05T22:00:27;6.00;;;4.50;;
31182;SDS011;17813;0.000;0.000;2023-03-05T22:02:54;4.93;;;4.43;;
31182;SDS011;17813;0.000;0.000;2023-03-05T22:05:21;4.60;;;4.10;;
31182;SDS011;17813;0.000;0.000;2023-03-05T22:07:48;4.33;;;3.93;;
31182;SDS011;17813;0.000;0.000;2023-03-05T22:10:16;4.53;;;3.77;;
31182;SDS011;17813;0.000;0.000;2023-03-05T22:18:16;5.40;;;4.40;;
31182;SDS011;17813;0.000;0.000;2023-03-05T22:20:44;4.70;;;4.17;;
31182;SDS011;17813;0.000;0.000;2023-03-05T22:23:12;4.77;;;4.30;;
31182;SDS011;17813;0.000;0.000;2023-03-05T22:25:40;4.27;;;3.87;;
31182;SDS011;17813;0.000;0.000;2023-03-05T22:28:11;4.83;;;4.10;;
31182;SDS011;17813;0.000;0.000;2023-03-05T22:30:42;4.90;;;4.37;;
31182;SDS011;17813;0.000;0.000;2023-03-05T22:33:09;4.77;;;4.03;;
31182;SDS011;17813;0.000;0.000;2023-03-05T22:35:40;4.80;;;4.30;;
31182;SDS011;17813;0.000;0.000;2023-03-05T22:38:08;4.87;;;4.17;;
31182;SDS011;17813;0.000;0.000;2023-03-05T22:40:38;5.70;;;4.43;;
31182;SDS011;17813;0.000;0.000;2023-03-05T22:43:07;7.27;;;5.00;;
31182;SDS011;17813;0.000;0.000;2023-03-05T22:45:34;4.97;;;4.40;;
31182;SDS011;17813;0.000;0.000;2023-03-05T22:48:01;5.10;;;4.60;;
31182;SDS011;17813;0.000;0.000;2023-03-05T22:50:28;5.20;;;4.70;;
31182;SDS011;17813;0.000;0.000;2023-03-05T22:52:55;5.60;;;5.00;;
31182;SDS011;17813;0.000;0.000;2023-03-05T22:55:22;6.73;;;5.20;;
31182;SDS011;17813;0.000;0.000;2023-03-05T22:57:49;5.77;;;5.13;;
31182;SDS011;17813;0.000;0.000;2023-03-05T23:00:17;7.60;;;4.70;;
31182;SDS011;17813;0.000;0.000;2023-03-05T23:02:50;5.83;;;5.03;;
31182;SDS011;17813;0.000;0.000;2023-03-05T23:05:17;5.33;;;4.60;;
31182;SDS011;17813;0.000;0.000;2023-03-05T23:07:44;7.23;;;5.60;;
31182;SDS011;17813;0.000;0.000;2023-03-05T23:10:19;5.43;;;4.60;;
31182;SDS011;17813;0.000;0.000;2023-03-05T23:12:52;4.90;;;4.40;;
31182;SDS011;17813;0.000;0.000;2023-03-05T23:30:42;6.53;;;5.10;;
31182;SDS011;17813;0.000;0.000;2023-03-05T23:33:14;5.70;;;5.10;;
31182;SDS011;17813;0.000;0.000;2023-03-05T23:35:48;7.13;;;5.43;;
31182;SDS011;17813;0.000;0.000;2023-03-05T23:38:16;11.17;;;8.37;;
31182;SDS011;17813;0.000;0.000;2023-03-05T23:40:47;8.93;;;7.57;;
31182;SDS011;17813;0.000;0.000;2023-03-05T23:43:21;8.57;;;6.93;;
31182;SDS011;17813;0.000;0.000;2023-03-05T23:45:49;7.27;;;6.20;;
31182;SDS011;17813;0.000;0.000;2023-03-05T23:48:20;7.47;;;6.10;;
31182;SDS011;17813;0.000;0.000;2023-03-05T23:50:48;8.73;;;6.57;;
31182;SDS011;17813;0.000;0.000;2023-03-05T23:53:20;8.97;;;6.83;;
31182;SDS011;17813;0.000;0.000;2023-03-05T23:55:51;8.10;;;6.60;;
31182;SDS011;17813;0.000;0.000;2023-03-05T23:58:19;8.40;;;7.10;;
